Washington, DC (20045)

8:21 AM EST on February 10, 2016 (GMT -0500)
Logan Circle | | Change Station
CLOSE
Current Station
Personal Weather Station
Location: Washington, DC
Elevation: 108 ft
Nearby Weather Stations
Active Advisory: Coastal Flood Advisory

Elev 108 ft 38.91 °N, 77.03 °W | Updated 7 seconds ago

Mostly Cloudy
Mostly Cloudy
31.3 °F
Feels Like 31 °F
N
0.0
Wind Variable Wind from North
Gusts 0.0 mph

Today
High -- | Low -- °F
--% Chance of Precip.
Yesterday
High -- | Low -- °F
Precip. -- in
Pressure 29.80 in
Visibility 10.0 miles
Clouds Few 4500 ft
Mostly Cloudy 9000 ft
Windchill 31 °F
Dew Point 20 °F
Humidity 64%
Rainfall 0.00 in
Snow Depth Not available.
7:05 AM 5:39 PM
Waxing Crescent, 5% visible
METAR KDCA 101252Z 29013G18KT 10SM FEW045 BKN090 00/M09 A2980 RMK AO2 SLP089 T00001089
Pressure 29.80 in
Visibility 10.0 miles
Clouds Few 4500 ft
Mostly Cloudy 9000 ft
Windchill 31 °F
Dew Point 20 °F
Humidity 64%
Rainfall 0.00 in
Snow Depth Not available.
7:05 AM 5:39 PM
Waxing Crescent, 5% visible
METAR KDCA 101252Z 29013G18KT 10SM FEW045 BKN090 00/M09 A2980 RMK AO2 SLP089 T00001089

10-Day Weather Forecast

Almanac

Astronomy

Feb. 10, 2016 Rise Set
Actual Time
Civil Twilight
Nautical Twilight
Astronomical Twilight
Moon
Length of Visible Light
Length of Day
Tomorrow will be .
, % of the Moon is Illuminated

Today's Extremes

State Highs State Lows

Community

WunderPhotos

Upload Photos

1,891,840 photos uploaded!

WunderBlog® & News

Nearby

Air Quality

  Air Quality AQ Index Pollutant
Not available.

Snow Depth

Station Depth Elevation

Earthquake Activity

City Distance Mag. Time & Date
Minimum magnitude displayed is 2.5.

Coastal Water Temperatures

Place Temperature

Stations

Nearby Weather Stations

Station Location Temp. Windchill Dew Point Humidity Wind Precip. Elev Updated Type
                   

Watches & Warnings

Coastal Flood Advisory
Issued: 4:43 AM EST Feb. 10, 2016 – National Weather Service

... Coastal Flood Advisory in effect until noon EST today...

The National Weather Service in Baltimore MD/Washington has
issued a coastal Flood Advisory... which is in effect until noon
EST today.

* Tidal anomaly... between 2 and 2.5 feet above normal.

* Timing... around high tide. High tide at Washington Channel will
be at 9:05 am... and high tide at Alexandria will be at 9:23 am.

* Expected impacts... minor inundation of low lying shoreline...
such as the eastern end of King Street in Old Town Alexandria
and along East Potomac Park and the Georgetown boardwalk in
Washington DC.

Precautionary/preparedness actions...

A coastal Flood Advisory indicates that onshore winds and tides
will combine to generate flooding of low areas along the shore.



All tide heights are relative to mean lower low water.
Time of high total tides are approximate to the nearest hour.